Lower Post, Canada
Current Conditions -  °F | °C
As of 4:00 PM on Sunday 23 Nov 2014 (Local Time) from CYQH Reporting Station
Overcast Overcast  
Wind Chill:   Ceiling: 5000
Heat Index:   Visibility: 20mi
Dew Point:   Wind: 0mph
Humidity: 79%   Direction: NA
Pressure: 29.7"   Gusts: NA
Location:  59.92°N, 128.5°W
Report Text: CYQH 240000Z 00000KT 20SM OVC050 M14/M17 A2970 RMK SC7 CLIMAT-13.5/17.7/0.0CM/0.0MM SLP119
Loading
Personal Weather Stations






























Interactive Weather Map New forecast layout! Learn more

10-Day Weather Forecast

Advertisements
Track Severe Weather on mobile